createdAt,value
2019-03-01T00:01:54.297Z,36.77
2019-03-01T00:04:27.851Z,39.30
2019-03-01T00:07:14.803Z,36.45
2019-03-01T00:09:48.234Z,39.55
2019-03-01T00:12:26.425Z,41.42
2019-03-01T00:15:15.367Z,44.23
2019-03-01T00:18:01.885Z,58.98
2019-03-01T00:20:38.462Z,57.93
2019-03-01T00:23:19.726Z,66.62
2019-03-01T00:25:52.716Z,66.95
2019-03-01T00:28:32.089Z,69.92
2019-03-01T00:31:10.357Z,77.62
2019-03-01T00:33:46.157Z,90.17
2019-03-01T00:36:31.177Z,104.47
2019-03-01T00:39:07.738Z,105.60
2019-03-01T00:41:47.858Z,108.75
2019-03-01T00:44:35.964Z,108.93
2019-03-01T00:47:04.934Z,111.45
2019-03-01T00:49:33.929Z,107.75
2019-03-01T00:52:06.474Z,104.50
2019-03-01T00:54:35.536Z,107.45
2019-03-01T00:57:06.043Z,107.55
2019-03-01T00:59:36.526Z,104.20
2019-03-01T01:02:05.619Z,105.52
2019-03-01T01:04:34.600Z,90.87
2019-03-01T01:07:03.648Z,83.35
2019-03-01T01:09:32.641Z,81.02
2019-03-01T01:12:02.863Z,81.90
2019-03-01T01:14:33.484Z,70.17
2019-03-01T01:17:05.484Z,70.70
2019-03-01T01:19:34.467Z,70.80
2019-03-01T01:22:03.440Z,63.92
2019-03-01T01:24:34.877Z,60.92
2019-03-01T01:27:06.637Z,56.83
2019-03-01T01:29:38.130Z,53.10
2019-03-01T01:32:06.558Z,51.77
2019-03-01T01:34:38.507Z,49.15
2019-03-01T01:37:07.589Z,48.28
2019-03-01T01:39:39.554Z,42.48
2019-03-01T01:42:14.364Z,43.30
2019-03-01T01:44:43.308Z,43.40
2019-03-01T01:47:22.674Z,41.00
2019-03-01T01:49:54.524Z,39.78
2019-03-01T01:52:26.801Z,38.35
2019-03-01T01:54:56.851Z,36.95
2019-03-01T01:57:25.827Z,37.03
2019-03-01T01:59:55.865Z,35.65
2019-03-01T02:02:24.877Z,33.85
2019-03-01T02:04:53.895Z,35.68
2019-03-01T02:07:25.988Z,36.25
2019-03-01T02:09:57.551Z,39.30
2019-03-01T02:12:26.565Z,42.40
2019-03-01T02:14:59.541Z,41.58
2019-03-01T02:17:35.301Z,42.53
2019-03-01T02:20:19.049Z,43.87
2019-03-01T02:22:51.071Z,47.15
2019-03-01T02:25:22.845Z,48.52
2019-03-01T02:27:51.951Z,54.67
2019-03-01T02:30:22.473Z,57.27
2019-03-01T02:32:51.517Z,56.55
2019-03-01T02:35:20.479Z,60.98
2019-03-01T02:37:49.445Z,62.43
2019-03-01T02:40:21.255Z,61.53
2019-03-01T02:42:50.436Z,64.37
2019-03-01T02:45:20.359Z,67.60
2019-03-01T02:47:49.604Z,64.35
2019-03-01T02:50:19.689Z,61.10
2019-03-01T02:52:52.268Z,62.17
2019-03-01T02:55:24.896Z,63.17
2019-03-01T02:57:57.944Z,63.17
2019-03-01T03:00:29.324Z,67.17
2019-03-01T03:02:58.432Z,66.00
2019-03-01T03:05:27.445Z,67.97
2019-03-01T03:08:03.198Z,65.10
2019-03-01T03:10:34.120Z,63.52
2019-03-01T03:13:06.582Z,62.53
2019-03-01T03:15:44.210Z,60.45
2019-03-01T03:18:17.551Z,60.45
2019-03-01T03:20:49.676Z,59.35
2019-03-01T03:23:22.225Z,56.95
2019-03-01T03:25:51.249Z,58.15
2019-03-01T03:28:22.133Z,59.03
2019-03-01T03:30:51.199Z,59.53
2019-03-01T03:33:23.244Z,61.65
2019-03-01T03:35:57.283Z,59.77
2019-03-01T03:38:24.862Z,55.17
2019-03-01T03:40:57.999Z,56.65
2019-03-01T03:43:26.965Z,54.93
2019-03-01T03:45:56.412Z,50.98
2019-03-01T03:48:25.459Z,50.78
2019-03-01T03:50:54.454Z,47.53
2019-03-01T03:53:26.518Z,51.73
2019-03-01T03:55:55.658Z,48.98
2019-03-01T03:58:24.613Z,52.27
2019-03-01T04:00:59.484Z,50.67
2019-03-01T04:03:28.709Z,52.58
2019-03-01T04:05:57.711Z,54.37
2019-03-01T04:08:27.279Z,51.90
2019-03-01T04:10:56.327Z,50.35
2019-03-01T04:13:25.431Z,53.17
2019-03-01T04:15:54.406Z,57.62
2019-03-01T04:18:23.414Z,55.45
2019-03-01T04:20:52.476Z,60.38
2019-03-01T04:23:21.458Z,61.28
2019-03-01T04:25:52.789Z,62.05
2019-03-01T04:28:23.295Z,65.50
2019-03-01T04:30:56.923Z,79.22
2019-03-01T04:33:27.803Z,80.97
2019-03-01T04:36:01.887Z,87.15
2019-03-01T04:38:30.219Z,88.03
2019-03-01T04:43:30.123Z,83.75
2019-03-01T04:45:59.134Z,84.55
2019-03-01T04:48:28.166Z,83.07
2019-03-01T04:50:57.239Z,84.87
2019-03-01T04:53:27.427Z,84.60
2019-03-01T04:56:02.019Z,85.55
2019-03-01T04:58:31.113Z,86.53
2019-03-01T05:01:00.073Z,86.63
2019-03-01T05:03:29.075Z,87.97
2019-03-01T05:05:58.260Z,88.17
2019-03-01T05:08:27.246Z,93.15
2019-03-01T05:10:59.535Z,93.22
2019-03-01T05:13:28.558Z,96.67
2019-03-01T05:15:57.768Z,98.67
2019-03-01T05:18:26.810Z,100.10
2019-03-01T05:20:55.833Z,96.00
2019-03-01T05:23:26.762Z,102.17
2019-03-01T05:25:55.750Z,105.97
2019-03-01T05:28:24.765Z,109.07
2019-03-01T05:30:53.803Z,107.17
2019-03-01T05:33:25.564Z,113.03
2019-03-01T05:35:54.545Z,109.83
2019-03-01T05:38:26.200Z,112.40
2019-03-01T05:40:57.602Z,109.35
2019-03-01T05:43:29.794Z,114.28
2019-03-01T05:46:06.677Z,107.30
2019-03-01T05:48:39.907Z,117.28
2019-03-01T05:51:08.887Z,118.22
2019-03-01T05:53:37.862Z,116.35
2019-03-01T05:56:16.902Z,117.85
2019-03-01T05:58:50.417Z,120.42
2019-03-01T06:01:28.179Z,124.42
2019-03-01T06:04:00.298Z,130.70
2019-03-01T06:06:35.026Z,129.53
2019-03-01T06:09:11.448Z,122.80
2019-03-01T06:11:41.964Z,126.58
2019-03-01T06:14:12.478Z,132.12
2019-03-01T06:16:45.696Z,140.20
2019-03-01T06:19:16.211Z,136.57
2019-03-01T06:21:51.893Z,136.45
2019-03-01T06:24:22.915Z,139.30
2019-03-01T06:26:56.391Z,135.88
2019-03-01T06:29:34.858Z,143.15
2019-03-01T06:32:26.404Z,137.47
2019-03-01T06:34:56.990Z,138.35
2019-03-01T06:37:36.496Z,137.28
2019-03-01T06:40:24.998Z,139.90
2019-03-01T06:42:57.591Z,139.05
2019-03-01T06:45:36.070Z,138.45
2019-03-01T06:48:05.263Z,133.32
2019-03-01T06:50:41.694Z,137.07
2019-03-01T06:53:10.683Z,133.37
2019-03-01T06:55:41.337Z,131.25
2019-03-01T06:58:18.266Z,128.50
2019-03-01T07:00:50.371Z,114.60
2019-03-01T07:03:22.474Z,115.75
2019-03-01T07:05:51.449Z,110.12
2019-03-01T07:08:20.434Z,99.77
2019-03-01T07:10:49.430Z,94.37
2019-03-01T07:13:18.486Z,89.90
2019-03-01T07:15:50.451Z,85.45
2019-03-01T07:18:19.420Z,84.17
2019-03-01T07:20:48.405Z,87.25
2019-03-01T07:23:17.743Z,84.37
2019-03-01T07:28:18.303Z,67.03
2019-03-01T07:30:47.517Z,56.10
2019-03-01T07:33:18.401Z,45.87
2019-03-01T07:35:47.474Z,37.55
2019-03-01T07:38:16.441Z,34.50
2019-03-01T07:40:47.117Z,30.10
2019-03-01T07:43:16.105Z,30.75
2019-03-01T07:45:49.834Z,28.25
2019-03-01T07:48:19.051Z,25.68
2019-03-01T07:50:52.526Z,25.20
2019-03-01T07:53:21.579Z,20.95
2019-03-01T07:55:52.301Z,22.75
2019-03-01T07:58:25.485Z,23.47
2019-03-01T08:00:55.713Z,19.45
2019-03-01T08:03:28.351Z,18.57
2019-03-01T08:05:59.008Z,20.10
2019-03-01T08:08:30.305Z,18.02
2019-03-01T08:11:00.551Z,17.02
2019-03-01T08:13:33.187Z,16.42
2019-03-01T08:16:02.598Z,15.60
2019-03-01T08:18:33.296Z,16.37
2019-03-01T08:21:10.142Z,16.17
2019-03-01T08:23:40.180Z,15.83
2019-03-01T08:26:09.158Z,16.70
2019-03-01T08:28:42.161Z,16.60
2019-03-01T08:31:11.189Z,16.82
2019-03-01T08:33:43.439Z,15.83
2019-03-01T08:36:12.895Z,15.03
2019-03-01T08:38:43.591Z,15.38
2019-03-01T08:41:12.894Z,17.20
2019-03-01T08:43:44.729Z,17.10
2019-03-01T08:46:18.774Z,17.67
2019-03-01T08:48:47.752Z,15.95
2019-03-01T08:51:22.493Z,19.23
2019-03-01T08:53:51.003Z,24.32
2019-03-01T08:56:26.231Z,25.82
2019-03-01T08:58:56.899Z,26.12
2019-03-01T09:01:31.682Z,25.43
2019-03-01T09:04:03.592Z,23.27
2019-03-01T09:06:32.847Z,22.55
2019-03-01T09:09:01.824Z,21.57
2019-03-01T09:11:37.900Z,20.68
2019-03-01T09:14:06.939Z,17.00
2019-03-01T09:16:35.922Z,17.00
2019-03-01T09:19:04.890Z,14.23
2019-03-01T09:21:35.068Z,11.38
2019-03-01T09:26:35.546Z,9.98
2019-03-01T09:29:05.108Z,9.90
2019-03-01T09:31:34.095Z,8.85
2019-03-01T09:34:03.500Z,8.00
2019-03-01T09:36:35.708Z,8.80
2019-03-01T09:39:07.862Z,9.15
2019-03-01T09:41:40.516Z,9.25
2019-03-01T09:44:15.369Z,9.35
2019-03-01T09:46:44.361Z,8.03
2019-03-01T09:49:14.605Z,8.43
2019-03-01T09:51:49.127Z,9.25
2019-03-01T09:54:16.047Z,8.08
2019-03-01T09:56:45.001Z,8.65
2019-03-01T09:59:16.852Z,8.23
2019-03-01T10:01:47.381Z,6.78
2019-03-01T10:04:17.881Z,5.75
2019-03-01T10:06:52.631Z,6.20
2019-03-01T10:09:22.709Z,5.20
2019-03-01T10:17:13.893Z,5.05
2019-03-01T10:19:42.927Z,3.58
2019-03-01T10:22:12.008Z,3.58
2019-03-01T10:24:41.018Z,3.05
2019-03-01T10:27:10.016Z,3.30
2019-03-01T10:29:38.972Z,3.33
2019-03-01T10:34:37.575Z,2.50
2019-03-01T10:37:08.191Z,2.20
2019-03-01T10:39:37.155Z,2.95
2019-03-01T10:42:06.192Z,2.25
2019-03-01T10:44:42.566Z,2.47
2019-03-01T10:47:11.619Z,2.85
2019-03-01T10:49:40.655Z,2.83
2019-03-01T10:52:11.957Z,2.45
2019-03-01T10:54:40.915Z,2.58
2019-03-01T10:57:10.461Z,2.33
2019-03-01T10:59:39.937Z,1.92
2019-03-01T11:02:13.824Z,1.77
2019-03-01T11:04:52.997Z,1.70
2019-03-01T11:07:22.246Z,1.90
2019-03-01T11:09:52.667Z,1.47
2019-03-01T11:12:21.648Z,1.60
2019-03-01T11:14:52.225Z,1.42
2019-03-01T11:17:21.258Z,1.52
2019-03-01T11:19:51.767Z,1.72
2019-03-01T11:22:20.759Z,1.20
2019-03-01T11:27:20.870Z,1.40
2019-03-01T11:29:49.850Z,1.87
2019-03-01T11:32:19.874Z,1.80
2019-03-01T11:34:49.082Z,1.60
2019-03-01T11:37:18.062Z,1.60
2019-03-01T11:39:47.016Z,1.80
2019-03-01T11:42:18.784Z,1.42
2019-03-01T11:44:51.810Z,1.62
2019-03-01T11:47:21.100Z,1.35
2019-03-01T11:49:52.206Z,1.55
2019-03-01T11:52:22.651Z,1.10
2019-03-01T11:54:51.594Z,1.10
2019-03-01T11:57:22.664Z,1.00
2019-03-01T11:59:51.682Z,1.07
2019-03-01T12:02:20.726Z,1.02
2019-03-01T12:04:49.672Z,1.10
2019-03-01T12:07:20.263Z,1.10
2019-03-01T12:09:54.796Z,1.10
2019-03-01T12:12:23.868Z,1.00
2019-03-01T12:14:53.327Z,1.00
2019-03-01T12:17:22.284Z,0.90
2019-03-01T12:19:51.257Z,1.00
2019-03-01T12:22:22.014Z,1.10
2019-03-01T12:24:52.516Z,1.20
2019-03-01T12:27:26.091Z,1.30
2019-03-01T12:29:55.990Z,1.00
2019-03-01T12:32:24.942Z,1.05
2019-03-01T12:34:53.905Z,1.52
2019-03-01T12:37:27.429Z,0.70
2019-03-01T12:39:56.475Z,0.80
2019-03-01T12:42:25.713Z,0.90
2019-03-01T12:44:54.747Z,1.00
2019-03-01T12:47:23.705Z,1.52
2019-03-01T12:49:52.703Z,1.40
2019-03-01T12:52:26.703Z,1.07
2019-03-01T12:54:58.533Z,1.20
2019-03-01T12:57:27.635Z,1.40
2019-03-01T12:59:57.625Z,1.10
2019-03-01T13:04:54.911Z,0.90
2019-03-01T13:07:23.954Z,1.00
2019-03-01T13:09:53.459Z,0.85
2019-03-01T13:12:25.997Z,0.90
2019-03-01T13:14:53.066Z,1.17
2019-03-01T13:17:25.113Z,1.27
2019-03-01T13:22:45.048Z,1.02
2019-03-01T13:25:15.613Z,1.20
2019-03-01T13:27:48.796Z,1.10
2019-03-01T13:30:26.129Z,1.10
2019-03-01T13:32:55.262Z,1.25
2019-03-01T13:35:27.237Z,1.40
2019-03-01T13:37:58.351Z,1.82
2019-03-01T13:40:27.584Z,1.07
2019-03-01T13:42:56.518Z,1.23
2019-03-01T13:45:26.049Z,1.42
2019-03-01T13:47:56.193Z,1.20
2019-03-01T13:52:55.696Z,1.00
2019-03-01T13:55:24.797Z,1.32
2019-03-01T13:57:53.870Z,1.15
2019-03-01T14:00:23.120Z,0.90
2019-03-01T14:02:53.533Z,0.90
2019-03-01T14:05:22.823Z,1.32
2019-03-01T14:07:56.702Z,1.30
2019-03-01T14:10:32.487Z,1.00
2019-03-01T14:13:01.960Z,1.05
2019-03-01T14:15:38.558Z,0.90
2019-03-01T14:18:11.454Z,1.00
2019-03-01T14:20:41.638Z,0.85
2019-03-01T14:23:10.654Z,1.12
2019-03-01T14:25:45.638Z,1.00
2019-03-01T14:28:14.644Z,0.80
2019-03-01T14:30:43.624Z,1.22
2019-03-01T14:33:12.678Z,1.20
2019-03-01T14:35:43.516Z,1.30
2019-03-01T14:38:14.260Z,1.07
2019-03-01T14:40:48.940Z,1.30
2019-03-01T14:43:20.289Z,1.05
2019-03-01T14:45:50.964Z,1.17
2019-03-01T14:48:20.376Z,1.37
2019-03-01T14:50:49.329Z,0.80
2019-03-01T14:53:18.310Z,1.25
2019-03-01T14:55:51.754Z,0.70
2019-03-01T14:58:28.077Z,0.72
2019-03-01T15:00:58.961Z,0.75
2019-03-01T15:03:33.152Z,0.80
2019-03-01T15:06:02.726Z,0.60
2019-03-01T15:08:35.735Z,1.05
2019-03-01T15:11:10.285Z,0.93
2019-03-01T15:13:40.115Z,1.00
2019-03-01T15:16:12.730Z,0.65
2019-03-01T15:18:42.157Z,0.80
2019-03-01T15:21:14.835Z,1.10
2019-03-01T15:23:45.988Z,1.05
2019-03-01T15:26:16.542Z,1.10
2019-03-01T15:28:54.029Z,0.80
2019-03-01T15:31:21.093Z,0.80
2019-03-01T15:33:56.652Z,1.02
2019-03-01T15:36:26.263Z,1.37
2019-03-01T15:38:55.235Z,1.35
2019-03-01T15:43:55.077Z,1.30
2019-03-01T15:46:24.076Z,1.65
2019-03-01T15:48:53.041Z,2.25
2019-03-01T15:51:22.083Z,1.57
2019-03-01T15:53:53.536Z,1.30
2019-03-01T15:56:22.275Z,1.50
2019-03-01T16:01:25.371Z,1.60
2019-03-01T16:03:57.954Z,1.70
2019-03-01T16:06:29.165Z,1.20
2019-03-01T16:08:58.201Z,1.10
2019-03-01T16:11:28.446Z,1.30
2019-03-01T16:14:00.614Z,1.60
2019-03-01T16:16:31.749Z,0.90
2019-03-01T16:19:00.687Z,1.10
2019-03-01T16:21:31.181Z,1.75
2019-03-01T16:24:04.986Z,1.75
2019-03-01T16:26:37.595Z,1.37
2019-03-01T16:29:07.354Z,1.45
2019-03-01T16:31:37.503Z,1.07
2019-03-01T16:34:06.538Z,1.40
2019-03-01T16:36:38.699Z,1.02
2019-03-01T16:39:09.190Z,1.57
2019-03-01T16:41:42.638Z,1.10
2019-03-01T16:44:10.602Z,1.20
2019-03-01T16:46:40.793Z,1.07
2019-03-01T16:49:09.826Z,1.57
2019-03-01T16:51:38.770Z,1.32
2019-03-01T16:54:09.039Z,2.00
2019-03-01T16:56:38.458Z,1.70
2019-03-01T16:59:11.326Z,1.87
2019-03-01T17:01:40.795Z,2.00
2019-03-01T17:04:12.575Z,1.75
2019-03-01T17:06:41.604Z,1.52
2019-03-01T17:09:11.807Z,1.55
2019-03-01T17:11:43.194Z,1.50
2019-03-01T17:14:15.953Z,1.32
2019-03-01T17:16:45.235Z,1.32
2019-03-01T17:19:16.848Z,1.90
2019-03-01T17:21:50.534Z,2.17
2019-03-01T17:24:20.664Z,1.45
2019-03-01T17:26:51.778Z,2.05
2019-03-01T17:29:20.802Z,1.70
2019-03-01T17:31:49.775Z,1.65
2019-03-01T17:34:25.447Z,1.98
2019-03-01T17:36:54.685Z,1.95
2019-03-01T17:39:25.289Z,1.85
2019-03-01T17:41:55.818Z,1.10
2019-03-01T17:44:26.055Z,1.70
2019-03-01T17:46:57.570Z,1.82
2019-03-01T17:49:29.678Z,1.90
2019-03-01T17:52:06.356Z,1.90
2019-03-01T17:54:35.304Z,1.90
2019-03-01T17:57:04.523Z,3.47
2019-03-01T17:59:33.443Z,2.40
2019-03-01T18:02:02.513Z,2.58
2019-03-01T18:04:36.872Z,2.12
2019-03-01T18:07:11.923Z,2.00
2019-03-01T18:09:40.911Z,2.72
2019-03-01T18:12:10.474Z,1.50
2019-03-01T18:14:46.004Z,1.32
2019-03-01T18:17:18.421Z,1.70
2019-03-01T18:19:47.416Z,1.70
2019-03-01T18:22:23.051Z,1.70
2019-03-01T18:24:53.129Z,2.00
2019-03-01T18:27:22.085Z,1.42
2019-03-01T18:29:53.407Z,1.40
2019-03-01T18:32:22.366Z,1.65
2019-03-01T18:34:51.391Z,1.47
2019-03-01T18:37:20.341Z,1.65
2019-03-01T18:39:50.588Z,1.20
2019-03-01T18:42:25.723Z,2.12
2019-03-01T18:44:57.196Z,2.72
2019-03-01T18:47:33.000Z,2.27
2019-03-01T18:50:06.095Z,1.50
2019-03-01T18:52:38.666Z,1.32
2019-03-01T18:55:19.231Z,1.35
2019-03-01T18:57:51.291Z,1.15
2019-03-01T19:00:28.973Z,1.85
2019-03-01T19:03:04.623Z,1.30
2019-03-01T19:05:32.781Z,1.75
2019-03-01T19:08:04.828Z,1.20
2019-03-01T19:10:35.680Z,1.45
2019-03-01T19:13:04.674Z,1.47
2019-03-01T19:15:35.213Z,1.57
2019-03-01T19:18:06.007Z,1.50
2019-03-01T19:20:37.939Z,1.93
2019-03-01T19:23:07.689Z,2.00
2019-03-01T19:25:36.690Z,1.67
2019-03-01T19:28:09.081Z,2.77
2019-03-01T19:30:39.196Z,1.70
2019-03-01T19:33:08.172Z,1.87
2019-03-01T19:35:38.736Z,1.95
2019-03-01T19:38:08.190Z,1.95
2019-03-01T19:40:39.777Z,2.00
2019-03-01T19:43:11.118Z,2.00
2019-03-01T19:45:44.555Z,1.82
2019-03-01T19:48:13.520Z,1.70
2019-03-01T19:50:43.579Z,1.90
2019-03-01T19:53:12.819Z,2.02
2019-03-01T19:55:43.998Z,2.33
2019-03-01T19:58:12.783Z,2.20
2019-03-01T20:00:48.026Z,2.22
2019-03-01T20:03:19.858Z,2.17
2019-03-01T20:05:54.455Z,2.85
2019-03-01T20:08:26.447Z,2.50
2019-03-01T20:10:55.695Z,2.35
2019-03-01T20:13:24.710Z,2.62
2019-03-01T20:15:55.785Z,2.35
2019-03-01T20:18:26.214Z,2.90
2019-03-01T20:20:55.382Z,2.70
2019-03-01T20:23:29.466Z,2.80
2019-03-01T20:25:58.894Z,3.27
2019-03-01T20:28:29.366Z,3.00
2019-03-01T20:31:04.611Z,2.50
2019-03-01T20:33:32.661Z,2.27
2019-03-01T20:36:01.629Z,2.85
2019-03-01T20:38:30.635Z,2.72
2019-03-01T20:40:59.838Z,3.00
2019-03-01T20:43:33.814Z,3.00
2019-03-01T20:46:03.796Z,3.25
2019-03-01T20:48:33.511Z,3.20
2019-03-01T20:51:10.521Z,3.35
2019-03-01T20:53:37.839Z,3.05
2019-03-01T20:56:13.901Z,3.27
2019-03-01T20:58:40.430Z,3.92
2019-03-01T21:01:09.719Z,4.15
2019-03-01T21:03:41.029Z,4.15
2019-03-01T21:06:12.185Z,3.77
2019-03-01T21:08:41.150Z,4.85
2019-03-01T21:11:10.265Z,4.75
2019-03-01T21:13:39.538Z,5.10
2019-03-01T21:16:09.687Z,5.10
2019-03-01T21:21:10.089Z,5.00
2019-03-01T21:23:42.564Z,4.85
2019-03-01T21:26:12.047Z,5.40
2019-03-01T21:28:42.493Z,6.05
2019-03-01T21:31:11.463Z,5.93
2019-03-01T21:33:40.459Z,6.85
2019-03-01T21:36:09.427Z,6.78
2019-03-01T21:38:40.218Z,6.65
2019-03-01T21:41:11.199Z,7.50
2019-03-01T21:43:41.793Z,7.05
2019-03-01T21:46:34.074Z,6.95
2019-03-01T21:49:11.150Z,7.37
2019-03-01T21:51:40.121Z,5.83
2019-03-01T21:54:12.561Z,6.95
2019-03-01T21:56:55.391Z,6.70
2019-03-01T21:59:13.710Z,6.30
2019-03-01T22:01:43.640Z,6.78
2019-03-01T22:04:16.027Z,6.87
2019-03-01T22:06:45.562Z,6.12
2019-03-01T22:09:16.403Z,6.12
2019-03-01T22:11:49.207Z,6.50
2019-03-01T22:14:21.630Z,6.58
2019-03-01T22:19:30.551Z,5.40
2019-03-01T22:21:59.590Z,6.03
2019-03-01T22:24:29.014Z,6.20
2019-03-01T22:26:58.002Z,6.90
2019-03-01T22:29:27.957Z,7.47
2019-03-01T22:32:01.550Z,8.38
2019-03-01T22:34:34.332Z,8.18
2019-03-01T22:37:06.124Z,8.50
2019-03-01T22:39:42.833Z,8.80
2019-03-01T22:42:14.295Z,9.13
2019-03-01T22:44:44.478Z,8.63
2019-03-01T22:47:13.559Z,9.40
2019-03-01T22:49:42.698Z,9.50
2019-03-01T22:52:11.617Z,8.63
2019-03-01T22:54:43.488Z,9.00
2019-03-01T22:57:12.459Z,10.30
2019-03-01T22:59:47.251Z,9.25
2019-03-01T23:02:15.587Z,9.48
2019-03-01T23:04:46.203Z,9.88
2019-03-01T23:07:16.807Z,8.73
2019-03-01T23:09:47.571Z,9.13
2019-03-01T23:12:18.410Z,9.75
2019-03-01T23:14:48.995Z,9.65
2019-03-01T23:17:19.768Z,8.95
2019-03-01T23:19:51.688Z,9.10
2019-03-01T23:22:21.643Z,8.40
2019-03-01T23:24:50.651Z,9.43
2019-03-01T23:27:19.880Z,9.78
2019-03-01T23:29:50.930Z,9.67
2019-03-01T23:32:21.218Z,9.03
2019-03-01T23:34:50.277Z,9.53
2019-03-01T23:37:19.376Z,8.23
2019-03-01T23:39:48.372Z,7.33
2019-03-01T23:42:20.896Z,8.40
2019-03-01T23:44:49.399Z,7.30
2019-03-01T23:47:18.436Z,8.43
2019-03-01T23:49:47.409Z,8.60
2019-03-01T23:52:19.553Z,9.80
2019-03-01T23:54:47.903Z,9.18
2019-03-01T23:57:20.373Z,9.05
2019-03-01T23:59:52.063Z,9.73
